메인 페이지
METAR-TAF:

METAR-TAF

공항 :

뉴올리언스, 루이지애나, 미국

위도: 29-59-34N, 경도: 090-15-03W, 고도: 1m

현재 날씨관측

예보는 1 시간 4분 전, 19:53시(UTC)에 발표되었습니다.
북북서7kt서북서풍과 풍을 오가는
온도 24°C
습도 47%
기압 1021 hPa
시정: 16.1km
고도 1500ft 상공 구름 조금
고도 25000ft 상공 구름 조금

METAR: KMSY 191953Z 33007KT 290V360 10SM FEW015 FEW250 24/12 A3015 RMK AO2 SLP213 FU FEW015 AND FEW CI DSNT W T02440117

시각: 15:57 (20:57 UTC)

예보

예보는 3 시간 37분 전, 17:20시(UTC)에 발표되었습니다.
예보 대상 시간: 19일 18시부터 20일 24시까지 (UTC)
9kt
시정: 10km
고도 25000ft 상공 구름 조금
20일 0100시부터 (UTC)
12kt, 순간 최대 풍속 22kt
시정: 10km
고도 25000ft 상공 구름 보통
20일 1600시부터 (UTC)
동북동9kt
시정: 10km
고도 25000ft 상공 구름 조금

TAF: KMSY 191720Z 1918/2024 36009KT P6SM FEW250 FM200100 01012G22KT P6SM SCT250 FM201600 06009KT P6SM FEW250

4,000개 이상의 공항 관측 자료 및 예보 (METAR 및 TAF 보고).

지도상에서 검색 가능한 기상관측소가 노란 점과 빨간 점으로 표시되어 있습니다.

기상관측소 명을 보려면 표시 위로 마우스를 이동하세요.

날씨 관측과 예보를 보려면 클릭하세요.

지도 변경 : 확대하려면 엑스 표시가 있는 녹색 버튼, 축소하려면 빼기 표시가 있는 녹색 버튼, 다음 페이지의 지도를 보려면 녹색 화살표를 클릭하세요.


METAR-TAF: